Godman Army Air Field
KFTK : now visible

Airfield :











YOU CAN JOIN US ON...

 
LOGIN :

Register | Disclaimer

   EN    FR    IT 

 









Legend :    VFR   Marginal VFR   IFR   Intensive IFR   Very Intensive IFR
Visi :
Ceiling :
>= 8 km
>= 3000ft
5 to 8 km
1000 to 3000 ft
1500m to 5 km
500 to 1000 ft
800 to 1500m
200 to 500 ft
< 800m
< 200 ft
Symbols :   Thunderstorms  Fog  Heavy snow  Heavy precipitations  Wind > 20 kt






- Airport Elevation : 756 ft


KFTK - Godman Army Air Field

CURRENT METAR :
  • 211556Z AUTO 21008KT 10SM BKN075 23/17 A3022 RMK AO2 DZB44E47 SLP233 P0000 T02340171

EXPIRED METARs :
  • 211547Z AUTO 21007KT 10SM BKN075 23/17 A3022 RMK AO2 DZB44E47 SLP233
  • 211456Z 22008KT 10SM SCT055 SCT250 22/17 A3022 RMK AO2A SLP233 T02160174 52014
  • 211450Z AUTO M M M M M A3023 RMK AO2 SLPNO ALSTG ESTMD RVRNO $
  • 211356Z AUTO 20007KT 10SM SCT055 18/18 A3021 RMK AO2 SLP231 T01770177
  • 211317Z AUTO 19005KT 10SM BKN044 17/17 A3021 RMK AO2 SLP231

TAF TAF KFTK
Valid from the 21 at 11:00 until the 22 at 17:00 UTC


211102Z 2111/2217 18006KT 6000 BR FEW250 WS020/24030KT QNH3016INS
BECMG 2114/2115 20007KT 9999 NSW BKN040 QNH3012INS
BECMG 2122/2123 VRB05KT 9999 FEW040 QNH3013INS
BECMG 2205/2206 VRB05KT 8000 BR FEW200 QNH3013INS
BECMG 2213/2214 17007KT 9999 NSW BKN200 QNH3015INS TX24/2120Z TN15/2111Z
KZID FIR / North America



MET'MAP, your aeronautical weather chart ! - Copyright ORBIFLY December 2007 - Disclaimer

ORBIFLY MET'MAP TEAM :

Programming & Development : Alexandra Zaïnal
Concept & original design : Baudouin d'Aumeries
Assistance for programming : Marc-Olivier Méhu
Technical & hardware support : Manuel Goepfert

Contact : metmap@orbifly.com




SOURCES & CREDITS :

   NOAA       Earth
Advisory